sensor_id;sensor_type;location;lat;lon;timestamp;pressure;altitude;pressure_sealevel;temperature;humidity
13869;BME280;7004;48.206;16.402;2022-12-05T00:01:45;99797.13;;;4.31;100.00
13869;BME280;7004;48.206;16.402;2022-12-05T00:04:13;99792.44;;;4.15;100.00
13869;BME280;7004;48.206;16.402;2022-12-05T00:06:41;99798.28;;;4.22;100.00
13869;BME280;7004;48.206;16.402;2022-12-05T00:09:12;99807.31;;;4.13;100.00
13869;BME280;7004;48.206;16.402;2022-12-05T00:11:43;99811.13;;;4.05;100.00
13869;BME280;7004;48.206;16.402;2022-12-05T00:14:10;99798.22;;;4.00;100.00
13869;BME280;7004;48.206;16.402;2022-12-05T00:16:40;99801.63;;;4.02;100.00
13869;BME280;7004;48.206;16.402;2022-12-05T00:19:10;99790.09;;;4.08;100.00
13869;BME280;7004;48.206;16.402;2022-12-05T00:21:38;99797.13;;;4.06;100.00
13869;BME280;7004;48.206;16.402;2022-12-05T00:24:08;99781.31;;;4.09;100.00
13869;BME280;7004;48.206;16.402;2022-12-05T00:26:36;99778.59;;;4.12;100.00
13869;BME280;7004;48.206;16.402;2022-12-05T00:29:03;99792.44;;;4.15;100.00
13869;BME280;7004;48.206;16.402;2022-12-05T00:31:29;99796.00;;;4.13;100.00
13869;BME280;7004;48.206;16.402;2022-12-05T00:33:59;99796.88;;;4.13;100.00
13869;BME280;7004;48.206;16.402;2022-12-05T00:36:31;99807.09;;;4.20;100.00
13869;BME280;7004;48.206;16.402;2022-12-05T00:39:05;99817.72;;;4.15;100.00
13869;BME280;7004;48.206;16.402;2022-12-05T00:41:31;99814.75;;;4.01;100.00
13869;BME280;7004;48.206;16.402;2022-12-05T00:44:00;99813.84;;;4.02;100.00
13869;BME280;7004;48.206;16.402;2022-12-05T00:46:29;99814.59;;;4.05;100.00
13869;BME280;7004;48.206;16.402;2022-12-05T00:48:57;99808.34;;;4.09;100.00
13869;BME280;7004;48.206;16.402;2022-12-05T00:51:39;99806.59;;;4.10;100.00
13869;BME280;7004;48.206;16.402;2022-12-05T00:54:11;99817.06;;;4.10;100.00
13869;BME280;7004;48.206;16.402;2022-12-05T00:56:38;99807.63;;;4.29;100.00
13869;BME280;7004;48.206;16.402;2022-12-05T00:59:06;99800.75;;;4.27;100.00
13869;BME280;7004;48.206;16.402;2022-12-05T01:01:38;99805.13;;;4.26;100.00
13869;BME280;7004;48.206;16.402;2022-12-05T01:04:15;99812.81;;;4.31;100.00
13869;BME280;7004;48.206;16.402;2022-12-05T01:06:43;99805.13;;;4.26;100.00
13869;BME280;7004;48.206;16.402;2022-12-05T01:09:13;99808.31;;;4.34;100.00
13869;BME280;7004;48.206;16.402;2022-12-05T01:11:41;99820.44;;;4.37;100.00
13869;BME280;7004;48.206;16.402;2022-12-05T01:14:14;99827.03;;;4.47;100.00
13869;BME280;7004;48.206;16.402;2022-12-05T01:16:45;99820.28;;;4.42;100.00
13869;BME280;7004;48.206;16.402;2022-12-05T01:19:19;99816.97;;;4.36;100.00
13869;BME280;7004;48.206;16.402;2022-12-05T01:21:46;99824.47;;;4.46;100.00
13869;BME280;7004;48.206;16.402;2022-12-05T01:24:14;99815.16;;;4.38;100.00
13869;BME280;7004;48.206;16.402;2022-12-05T01:26:42;99822.41;;;4.54;100.00
13869;BME280;7004;48.206;16.402;2022-12-05T01:29:09;99805.94;;;4.28;100.00
13869;BME280;7004;48.206;16.402;2022-12-05T01:31:37;99810.25;;;4.29;100.00
13869;BME280;7004;48.206;16.402;2022-12-05T01:34:06;99812.34;;;4.43;100.00
13869;BME280;7004;48.206;16.402;2022-12-05T01:36:33;99819.06;;;4.50;100.00
13869;BME280;7004;48.206;16.402;2022-12-05T01:39:00;99805.88;;;4.53;100.00
13869;BME280;7004;48.206;16.402;2022-12-05T01:41:32;99802.56;;;4.48;100.00
13869;BME280;7004;48.206;16.402;2022-12-05T01:47:03;99809.25;;;4.33;100.00
13869;BME280;7004;48.206;16.402;2022-12-05T01:49:37;99795.28;;;4.33;100.00
13869;BME280;7004;48.206;16.402;2022-12-05T01:52:10;99798.97;;;4.27;100.00
13869;BME280;7004;48.206;16.402;2022-12-05T01:54:39;99805.69;;;4.34;100.00
13869;BME280;7004;48.206;16.402;2022-12-05T01:57:08;99802.78;;;4.19;100.00
13869;BME280;7004;48.206;16.402;2022-12-05T01:59:40;99795.91;;;4.40;100.00
13869;BME280;7004;48.206;16.402;2022-12-05T02:02:08;99804.41;;;4.46;100.00
13869;BME280;7004;48.206;16.402;2022-12-05T02:05:09;99802.00;;;4.40;100.00
13869;BME280;7004;48.206;16.402;2022-12-05T02:07:38;99805.38;;;4.44;100.00
13869;BME280;7004;48.206;16.402;2022-12-05T02:10:07;99800.22;;;4.41;100.00
13869;BME280;7004;48.206;16.402;2022-12-05T02:12:34;99801.44;;;4.32;100.00
13869;BME280;7004;48.206;16.402;2022-12-05T02:26:55;99816.00;;;4.39;100.00
13869;BME280;7004;48.206;16.402;2022-12-05T02:30:06;99818.78;;;4.34;100.00
13869;BME280;7004;48.206;16.402;2022-12-05T02:33:08;99806.63;;;4.33;100.00
13869;BME280;7004;48.206;16.402;2022-12-05T02:36:08;99809.84;;;4.16;100.00
13869;BME280;7004;48.206;16.402;2022-12-05T02:39:16;99795.78;;;4.19;100.00
13869;BME280;7004;48.206;16.402;2022-12-05T02:41:49;99790.44;;;4.22;100.00
13869;BME280;7004;48.206;16.402;2022-12-05T02:44:27;99789.75;;;4.17;100.00
13869;BME280;7004;48.206;16.402;2022-12-05T02:46:58;99802.09;;;4.13;100.00
13869;BME280;7004;48.206;16.402;2022-12-05T02:49:31;99803.59;;;3.96;100.00
13869;BME280;7004;48.206;16.402;2022-12-05T02:52:03;99798.53;;;4.16;100.00
13869;BME280;7004;48.206;16.402;2022-12-05T02:54:37;99796.50;;;4.23;100.00
13869;BME280;7004;48.206;16.402;2022-12-05T02:57:09;99799.53;;;4.12;100.00
13869;BME280;7004;48.206;16.402;2022-12-05T02:59:38;99805.59;;;4.12;100.00
13869;BME280;7004;48.206;16.402;2022-12-05T03:02:04;99808.97;;;4.16;100.00
13869;BME280;7004;48.206;16.402;2022-12-05T03:04:31;99817.41;;;4.24;100.00
13869;BME280;7004;48.206;16.402;2022-12-05T03:07:09;99805.69;;;4.11;100.00
13869;BME280;7004;48.206;16.402;2022-12-05T03:09:49;99817.16;;;4.07;100.00
13869;BME280;7004;48.206;16.402;2022-12-05T03:12:29;99817.22;;;4.05;100.00
13869;BME280;7004;48.206;16.402;2022-12-05T03:15:17;99812.88;;;4.04;100.00
13869;BME280;7004;48.206;16.402;2022-12-05T03:17:54;99799.09;;;3.99;100.00
13869;BME280;7004;48.206;16.402;2022-12-05T03:21:14;99796.97;;;4.10;100.00
13869;BME280;7004;48.206;16.402;2022-12-05T03:23:44;99798.41;;;3.94;100.00
13869;BME280;7004;48.206;16.402;2022-12-05T03:26:25;99803.09;;;4.09;100.00
13869;BME280;7004;48.206;16.402;2022-12-05T03:29:12;99815.09;;;4.15;100.00
13869;BME280;7004;48.206;16.402;2022-12-05T03:32:22;99814.59;;;4.05;100.00
13869;BME280;7004;48.206;16.402;2022-12-05T03:35:02;99824.78;;;4.13;100.00
13869;BME280;7004;48.206;16.402;2022-12-05T03:37:51;99830.34;;;4.04;100.00
13869;BME280;7004;48.206;16.402;2022-12-05T03:40:25;99835.34;;;4.35;100.00
13869;BME280;7004;48.206;16.402;2022-12-05T03:46:22;99827.03;;;4.24;100.00
13869;BME280;7004;48.206;16.402;2022-12-05T03:49:10;99832.22;;;4.00;100.00
13869;BME280;7004;48.206;16.402;2022-12-05T03:52:13;99833.75;;;4.06;100.00
13869;BME280;7004;48.206;16.402;2022-12-05T03:54:52;99851.06;;;4.10;100.00
13869;BME280;7004;48.206;16.402;2022-12-05T03:57:58;99834.50;;;4.09;100.00
13869;BME280;7004;48.206;16.402;2022-12-05T04:00:28;99839.22;;;4.00;100.00
13869;BME280;7004;48.206;16.402;2022-12-05T04:05:58;99841.19;;;4.18;100.00
13869;BME280;7004;48.206;16.402;2022-12-05T04:08:31;99847.66;;;4.08;100.00
13869;BME280;7004;48.206;16.402;2022-12-05T04:11:09;99838.44;;;3.96;100.00
13869;BME280;7004;48.206;16.402;2022-12-05T04:13:43;99841.50;;;4.09;100.00
13869;BME280;7004;48.206;16.402;2022-12-05T04:16:35;99853.94;;;4.02;100.00
13869;BME280;7004;48.206;16.402;2022-12-05T04:19:42;99858.00;;;4.11;100.00
13869;BME280;7004;48.206;16.402;2022-12-05T04:22:28;99868.28;;;3.90;100.00
13869;BME280;7004;48.206;16.402;2022-12-05T04:24:57;99866.91;;;3.79;100.00
13869;BME280;7004;48.206;16.402;2022-12-05T04:33:59;99872.16;;;4.05;100.00
13869;BME280;7004;48.206;16.402;2022-12-05T04:39:24;99870.41;;;4.04;100.00
13869;BME280;7004;48.206;16.402;2022-12-05T04:41:57;99866.09;;;4.03;100.00
13869;BME280;7004;48.206;16.402;2022-12-05T04:44:31;99868.72;;;4.03;100.00
13869;BME280;7004;48.206;16.402;2022-12-05T04:47:02;99871.63;;;3.94;100.00
13869;BME280;7004;48.206;16.402;2022-12-05T04:49:32;99871.72;;;3.92;100.00
13869;BME280;7004;48.206;16.402;2022-12-05T04:52:06;99874.66;;;4.08;100.00
13869;BME280;7004;48.206;16.402;2022-12-05T04:57:32;99884.38;;;4.05;100.00
13869;BME280;7004;48.206;16.402;2022-12-05T04:59:59;99891.13;;;3.85;100.00
13869;BME280;7004;48.206;16.402;2022-12-05T05:02:39;99885.38;;;4.01;100.00
13869;BME280;7004;48.206;16.402;2022-12-05T05:05:10;99894.03;;;3.76;100.00
13869;BME280;7004;48.206;16.402;2022-12-05T05:07:49;99892.31;;;4.02;100.00
13869;BME280;7004;48.206;16.402;2022-12-05T05:10:56;99900.47;;;3.92;100.00
13869;BME280;7004;48.206;16.402;2022-12-05T05:13:12;99904.75;;;3.95;100.00
13869;BME280;7004;48.206;16.402;2022-12-05T05:15:39;99883.63;;;4.01;100.00
13869;BME280;7004;48.206;16.402;2022-12-05T05:18:05;99882.44;;;3.85;100.00
13869;BME280;7004;48.206;16.402;2022-12-05T05:20:31;99876.88;;;3.94;100.00
13869;BME280;7004;48.206;16.402;2022-12-05T05:22:58;99882.91;;;3.96;100.00
13869;BME280;7004;48.206;16.402;2022-12-05T05:25:25;99885.28;;;4.04;100.00
13869;BME280;7004;48.206;16.402;2022-12-05T05:27:54;99889.81;;;3.72;100.00
13869;BME280;7004;48.206;16.402;2022-12-05T05:30:22;99893.94;;;3.79;100.00
13869;BME280;7004;48.206;16.402;2022-12-05T05:32:49;99896.50;;;3.81;100.00
13869;BME280;7004;48.206;16.402;2022-12-05T05:35:16;99906.09;;;3.80;100.00
13869;BME280;7004;48.206;16.402;2022-12-05T05:37:42;99905.00;;;3.87;100.00
13869;BME280;7004;48.206;16.402;2022-12-05T05:40:11;99906.91;;;3.82;100.00
13869;BME280;7004;48.206;16.402;2022-12-05T05:42:47;99910.63;;;3.75;100.00
13869;BME280;7004;48.206;16.402;2022-12-05T05:45:15;99916.16;;;3.92;100.00
13869;BME280;7004;48.206;16.402;2022-12-05T05:47:44;99922.47;;;3.87;100.00
13869;BME280;7004;48.206;16.402;2022-12-05T05:50:10;99932.69;;;3.94;100.00
13869;BME280;7004;48.206;16.402;2022-12-05T05:52:37;99929.50;;;3.85;100.00
13869;BME280;7004;48.206;16.402;2022-12-05T05:55:05;99927.88;;;3.81;100.00
13869;BME280;7004;48.206;16.402;2022-12-05T05:57:32;99930.34;;;3.85;100.00
13869;BME280;7004;48.206;16.402;2022-12-05T05:59:59;99944.06;;;3.65;100.00
13869;BME280;7004;48.206;16.402;2022-12-05T06:02:34;99938.28;;;3.82;100.00
13869;BME280;7004;48.206;16.402;2022-12-05T06:05:00;99933.66;;;3.90;100.00
13869;BME280;7004;48.206;16.402;2022-12-05T06:07:27;99940.13;;;3.79;100.00
13869;BME280;7004;48.206;16.402;2022-12-05T06:09:53;99937.47;;;3.80;100.00
13869;BME280;7004;48.206;16.402;2022-12-05T06:12:19;99935.94;;;3.75;100.00
13869;BME280;7004;48.206;16.402;2022-12-05T06:14:49;99930.69;;;3.75;100.00
13869;BME280;7004;48.206;16.402;2022-12-05T06:17:15;99928.41;;;3.92;100.00
13869;BME280;7004;48.206;16.402;2022-12-05T06:19:41;99930.81;;;3.71;100.00
13869;BME280;7004;48.206;16.402;2022-12-05T06:22:08;99926.47;;;3.70;100.00
13869;BME280;7004;48.206;16.402;2022-12-05T06:24:34;99927.47;;;3.93;100.00
13869;BME280;7004;48.206;16.402;2022-12-05T06:27:00;99933.41;;;3.71;100.00
13869;BME280;7004;48.206;16.402;2022-12-05T06:29:26;99935.06;;;3.74;100.00
13869;BME280;7004;48.206;16.402;2022-12-05T06:31:52;99932.38;;;3.77;100.00
13869;BME280;7004;48.206;16.402;2022-12-05T06:34:18;99949.09;;;3.71;100.00
13869;BME280;7004;48.206;16.402;2022-12-05T06:36:44;99947.59;;;3.91;100.00
13869;BME280;7004;48.206;16.402;2022-12-05T06:39:11;99941.63;;;3.87;100.00
13869;BME280;7004;48.206;16.402;2022-12-05T06:41:37;99951.13;;;3.90;100.00
13869;BME280;7004;48.206;16.402;2022-12-05T06:44:03;99948.94;;;3.76;100.00
13869;BME280;7004;48.206;16.402;2022-12-05T06:46:30;99958.25;;;3.85;100.00
13869;BME280;7004;48.206;16.402;2022-12-05T06:48:57;99963.19;;;3.94;100.00
13869;BME280;7004;48.206;16.402;2022-12-05T06:51:23;99965.78;;;3.94;100.00
13869;BME280;7004;48.206;16.402;2022-12-05T06:53:50;99975.13;;;4.03;100.00
13869;BME280;7004;48.206;16.402;2022-12-05T06:56:18;99974.56;;;3.93;100.00
13869;BME280;7004;48.206;16.402;2022-12-05T06:58:47;99976.31;;;3.92;100.00
13869;BME280;7004;48.206;16.402;2022-12-05T07:01:17;99977.78;;;4.01;100.00
13869;BME280;7004;48.206;16.402;2022-12-05T07:04:03;99981.13;;;3.78;100.00
13869;BME280;7004;48.206;16.402;2022-12-05T07:06:30;99986.06;;;3.87;100.00
13869;BME280;7004;48.206;16.402;2022-12-05T07:08:57;99979.34;;;3.79;100.00
13869;BME280;7004;48.206;16.402;2022-12-05T07:11:23;99984.09;;;3.94;100.00
13869;BME280;7004;48.206;16.402;2022-12-05T07:13:49;99983.81;;;4.03;100.00
13869;BME280;7004;48.206;16.402;2022-12-05T07:16:15;99987.53;;;3.96;100.00
13869;BME280;7004;48.206;16.402;2022-12-05T07:18:42;99978.59;;;4.03;100.00
13869;BME280;7004;48.206;16.402;2022-12-05T07:21:11;99988.56;;;4.19;100.00
13869;BME280;7004;48.206;16.402;2022-12-05T07:23:39;99985.97;;;4.17;100.00
13869;BME280;7004;48.206;16.402;2022-12-05T07:26:19;99988.81;;;4.11;100.00
13869;BME280;7004;48.206;16.402;2022-12-05T07:28:46;99990.59;;;4.09;100.00
13869;BME280;7004;48.206;16.402;2022-12-05T07:31:17;99989.88;;;4.05;100.00
13869;BME280;7004;48.206;16.402;2022-12-05T07:33:45;99985.72;;;3.98;100.00
13869;BME280;7004;48.206;16.402;2022-12-05T07:36:18;99997.13;;;3.97;100.00
13869;BME280;7004;48.206;16.402;2022-12-05T07:38:45;99998.09;;;3.93;100.00
13869;BME280;7004;48.206;16.402;2022-12-05T07:41:31;99996.59;;;4.12;100.00
13869;BME280;7004;48.206;16.402;2022-12-05T07:43:59;100004.00;;;4.00;100.00
13869;BME280;7004;48.206;16.402;2022-12-05T07:46:27;100007.38;;;4.03;100.00
13869;BME280;7004;48.206;16.402;2022-12-05T07:48:54;100011.16;;;4.21;100.00
13869;BME280;7004;48.206;16.402;2022-12-05T07:51:20;100012.81;;;4.24;100.00
13869;BME280;7004;48.206;16.402;2022-12-05T07:53:47;100013.63;;;4.26;100.00
13869;BME280;7004;48.206;16.402;2022-12-05T07:56:16;100006.56;;;4.28;100.00
13869;BME280;7004;48.206;16.402;2022-12-05T07:58:44;100004.84;;;4.27;100.00
13869;BME280;7004;48.206;16.402;2022-12-05T08:01:20;100011.59;;;4.07;100.00
13869;BME280;7004;48.206;16.402;2022-12-05T08:03:47;100006.41;;;4.06;100.00
13869;BME280;7004;48.206;16.402;2022-12-05T08:06:21;100012.09;;;4.19;100.00
13869;BME280;7004;48.206;16.402;2022-12-05T08:08:48;100013.69;;;4.23;100.00
13869;BME280;7004;48.206;16.402;2022-12-05T08:11:23;100011.34;;;4.15;100.00
13869;BME280;7004;48.206;16.402;2022-12-05T08:13:50;99998.91;;;4.22;100.00
13869;BME280;7004;48.206;16.402;2022-12-05T08:16:20;100010.06;;;4.28;100.00
13869;BME280;7004;48.206;16.402;2022-12-05T08:18:46;100012.72;;;4.27;100.00
13869;BME280;7004;48.206;16.402;2022-12-05T08:21:18;100014.59;;;4.23;100.00
13869;BME280;7004;48.206;16.402;2022-12-05T08:23:45;100018.56;;;4.07;100.00
13869;BME280;7004;48.206;16.402;2022-12-05T08:26:18;100025.47;;;4.09;100.00
13869;BME280;7004;48.206;16.402;2022-12-05T08:28:46;100026.50;;;4.05;100.00
13869;BME280;7004;48.206;16.402;2022-12-05T08:31:15;100021.19;;;4.07;100.00
13869;BME280;7004;48.206;16.402;2022-12-05T08:33:42;100016.41;;;4.20;100.00
13869;BME280;7004;48.206;16.402;2022-12-05T08:36:12;100027.03;;;4.15;100.00
13869;BME280;7004;48.206;16.402;2022-12-05T08:38:39;100028.09;;;4.09;100.00
13869;BME280;7004;48.206;16.402;2022-12-05T08:41:09;100042.44;;;4.24;100.00
13869;BME280;7004;48.206;16.402;2022-12-05T08:43:36;100038.97;;;4.24;100.00
13869;BME280;7004;48.206;16.402;2022-12-05T08:46:03;100037.47;;;4.16;100.00
13869;BME280;7004;48.206;16.402;2022-12-05T08:48:30;100033.03;;;4.19;100.00
13869;BME280;7004;48.206;16.402;2022-12-05T08:50:58;100040.06;;;4.43;100.00
13869;BME280;7004;48.206;16.402;2022-12-05T08:53:25;100042.34;;;4.27;100.00
13869;BME280;7004;48.206;16.402;2022-12-05T08:55:52;100042.47;;;4.23;100.00
13869;BME280;7004;48.206;16.402;2022-12-05T09:20:38;100046.69;;;4.28;100.00
13869;BME280;7004;48.206;16.402;2022-12-05T09:23:04;100039.00;;;4.22;100.00
13869;BME280;7004;48.206;16.402;2022-12-05T09:25:30;100042.34;;;4.27;100.00
13869;BME280;7004;48.206;16.402;2022-12-05T09:27:56;100047.03;;;4.44;100.00
13869;BME280;7004;48.206;16.402;2022-12-05T09:30:23;100045.91;;;4.51;100.00
13869;BME280;7004;48.206;16.402;2022-12-05T09:32:49;100051.44;;;4.44;100.00
13869;BME280;7004;48.206;16.402;2022-12-05T09:35:15;100044.56;;;4.40;100.00
13869;BME280;7004;48.206;16.402;2022-12-05T09:37:41;100045.59;;;4.60;100.00
13869;BME280;7004;48.206;16.402;2022-12-05T09:40:15;100034.19;;;4.36;100.00
13869;BME280;7004;48.206;16.402;2022-12-05T09:45:36;100042.66;;;4.45;100.00
13869;BME280;7004;48.206;16.402;2022-12-05T09:48:14;100036.31;;;4.52;100.00
13869;BME280;7004;48.206;16.402;2022-12-05T09:50:44;100037.88;;;4.57;100.00
13869;BME280;7004;48.206;16.402;2022-12-05T09:53:36;100040.75;;;4.50;100.00
13869;BME280;7004;48.206;16.402;2022-12-05T09:58:48;100035.50;;;5.00;100.00
13869;BME280;7004;48.206;16.402;2022-12-05T10:05:06;100045.50;;;4.64;100.00
13869;BME280;7004;48.206;16.402;2022-12-05T10:15:39;100050.44;;;4.73;100.00
13869;BME280;7004;48.206;16.402;2022-12-05T10:18:14;100055.78;;;4.70;100.00
13869;BME280;7004;48.206;16.402;2022-12-05T10:21:00;100057.03;;;4.58;100.00
13869;BME280;7004;48.206;16.402;2022-12-05T10:23:36;100050.56;;;4.70;100.00
13869;BME280;7004;48.206;16.402;2022-12-05T10:26:07;100046.41;;;4.63;100.00
13869;BME280;7004;48.206;16.402;2022-12-05T10:28:49;100043.44;;;4.73;100.00
13869;BME280;7004;48.206;16.402;2022-12-05T10:31:23;100041.19;;;4.63;100.00
13869;BME280;7004;48.206;16.402;2022-12-05T10:34:14;100042.78;;;4.67;100.00
13869;BME280;7004;48.206;16.402;2022-12-05T10:37:28;100048.06;;;4.65;100.00
13869;BME280;7004;48.206;16.402;2022-12-05T10:39:57;100043.09;;;4.57;100.00
13869;BME280;7004;48.206;16.402;2022-12-05T10:42:29;100034.88;;;4.68;100.00
13869;BME280;7004;48.206;16.402;2022-12-05T10:45:01;100044.06;;;4.55;100.00
13869;BME280;7004;48.206;16.402;2022-12-05T10:47:29;100047.31;;;4.62;100.00
13869;BME280;7004;48.206;16.402;2022-12-05T10:50:02;100048.72;;;4.72;100.00
13869;BME280;7004;48.206;16.402;2022-12-05T10:52:30;100044.97;;;4.79;100.00
13869;BME280;7004;48.206;16.402;2022-12-05T10:55:02;100036.09;;;4.58;100.00
13869;BME280;7004;48.206;16.402;2022-12-05T10:57:29;100037.13;;;4.79;100.00
13869;BME280;7004;48.206;16.402;2022-12-05T10:59:56;100024.78;;;4.82;100.00
13869;BME280;7004;48.206;16.402;2022-12-05T11:02:30;100024.72;;;4.84;100.00
13869;BME280;7004;48.206;16.402;2022-12-05T11:04:58;100027.75;;;4.72;100.00
13869;BME280;7004;48.206;16.402;2022-12-05T11:07:35;100016.00;;;4.84;100.00
13869;BME280;7004;48.206;16.402;2022-12-05T11:10:35;100019.31;;;4.89;100.00
13869;BME280;7004;48.206;16.402;2022-12-05T11:13:24;100016.06;;;4.82;100.00
13869;BME280;7004;48.206;16.402;2022-12-05T11:15:50;100025.19;;;5.89;100.00
13869;BME280;7004;48.206;16.402;2022-12-05T11:18:25;100022.19;;;5.77;100.00
13869;BME280;7004;48.206;16.402;2022-12-05T11:20:53;100032.28;;;5.64;100.00
13869;BME280;7004;48.206;16.402;2022-12-05T11:23:29;100018.44;;;5.37;100.00
13869;BME280;7004;48.206;16.402;2022-12-05T11:25:57;100018.44;;;6.06;100.00
13869;BME280;7004;48.206;16.402;2022-12-05T11:28:34;100014.47;;;6.38;100.00
13869;BME280;7004;48.206;16.402;2022-12-05T11:31:20;100001.28;;;5.28;100.00
13869;BME280;7004;48.206;16.402;2022-12-05T11:34:15;100007.22;;;5.33;100.00
13869;BME280;7004;48.206;16.402;2022-12-05T11:37:19;100001.97;;;5.57;100.00
13869;BME280;7004;48.206;16.402;2022-12-05T11:39:47;100003.97;;;5.96;100.00
13869;BME280;7004;48.206;16.402;2022-12-05T11:51:18;99984.03;;;4.74;100.00
13869;BME280;7004;48.206;16.402;2022-12-05T11:56:38;99979.31;;;4.60;100.00
13869;BME280;7004;48.206;16.402;2022-12-05T12:08:32;99969.63;;;4.62;100.00
13869;BME280;7004;48.206;16.402;2022-12-05T12:11:43;99978.13;;;4.69;100.00
13869;BME280;7004;48.206;16.402;2022-12-05T12:20:07;99958.19;;;4.40;100.00
13869;BME280;7004;48.206;16.402;2022-12-05T12:23:21;99950.78;;;4.52;100.00
13869;BME280;7004;48.206;16.402;2022-12-05T12:32:48;99961.97;;;4.56;100.00
13869;BME280;7004;48.206;16.402;2022-12-05T12:35:45;99953.66;;;4.45;100.00
13869;BME280;7004;48.206;16.402;2022-12-05T12:39:07;99954.63;;;4.42;100.00
13869;BME280;7004;48.206;16.402;2022-12-05T12:42:01;99947.06;;;4.58;100.00
13869;BME280;7004;48.206;16.402;2022-12-05T12:45:04;99949.59;;;4.61;100.00
13869;BME280;7004;48.206;16.402;2022-12-05T12:47:53;99944.84;;;4.47;100.00
13869;BME280;7004;48.206;16.402;2022-12-05T12:50:32;99949.59;;;4.36;100.00
13869;BME280;7004;48.206;16.402;2022-12-05T12:59:27;99955.41;;;4.69;100.00
13869;BME280;7004;48.206;16.402;2022-12-05T13:01:54;99972.28;;;4.60;100.00
13869;BME280;7004;48.206;16.402;2022-12-05T13:04:33;99965.38;;;4.59;100.00
13869;BME280;7004;48.206;16.402;2022-12-05T13:07:09;99967.31;;;4.53;100.00
13869;BME280;7004;48.206;16.402;2022-12-05T13:09:49;99965.38;;;4.59;100.00
13869;BME280;7004;48.206;16.402;2022-12-05T13:12:26;99972.56;;;4.53;100.00
13869;BME280;7004;48.206;16.402;2022-12-05T13:15:01;99973.66;;;4.72;100.00
13869;BME280;7004;48.206;16.402;2022-12-05T13:17:29;99979.47;;;4.80;100.00
13869;BME280;7004;48.206;16.402;2022-12-05T13:19:59;99982.94;;;4.81;100.00
13869;BME280;7004;48.206;16.402;2022-12-05T13:22:27;99969.56;;;4.89;100.00
13869;BME280;7004;48.206;16.402;2022-12-05T13:24:54;99970.16;;;4.72;100.00
13869;BME280;7004;48.206;16.402;2022-12-05T13:27:25;99972.19;;;4.89;100.00
13869;BME280;7004;48.206;16.402;2022-12-05T13:30:00;99968.28;;;4.75;100.00
13869;BME280;7004;48.206;16.402;2022-12-05T13:32:32;99976.78;;;5.06;100.00
13869;BME280;7004;48.206;16.402;2022-12-05T13:35:20;99974.41;;;4.74;100.00
13869;BME280;7004;48.206;16.402;2022-12-05T13:38:28;99974.34;;;4.77;100.00
13869;BME280;7004;48.206;16.402;2022-12-05T13:41:14;99973.41;;;5.03;100.00
13869;BME280;7004;48.206;16.402;2022-12-05T13:44:01;99976.88;;;4.79;100.00
13869;BME280;7004;48.206;16.402;2022-12-05T13:46:34;99973.75;;;4.93;100.00
13869;BME280;7004;48.206;16.402;2022-12-05T13:49:06;99973.78;;;4.68;100.00
13869;BME280;7004;48.206;16.402;2022-12-05T13:51:42;99979.97;;;4.90;100.00
13869;BME280;7004;48.206;16.402;2022-12-05T13:56:54;99975.72;;;4.63;100.00
13869;BME280;7004;48.206;16.402;2022-12-05T14:00:03;99977.69;;;4.81;100.00
13869;BME280;7004;48.206;16.402;2022-12-05T14:07:45;99984.94;;;4.98;100.00
13869;BME280;7004;48.206;16.402;2022-12-05T14:10:21;99979.63;;;4.76;100.00
13869;BME280;7004;48.206;16.402;2022-12-05T14:12:50;99991.53;;;5.08;100.00
13869;BME280;7004;48.206;16.402;2022-12-05T14:15:38;100003.88;;;4.56;100.00
13869;BME280;7004;48.206;16.402;2022-12-05T14:18:51;100001.41;;;5.01;100.00
13869;BME280;7004;48.206;16.402;2022-12-05T14:21:35;99999.88;;;4.71;100.00
13869;BME280;7004;48.206;16.402;2022-12-05T14:28:47;99999.09;;;4.92;100.00
13869;BME280;7004;48.206;16.402;2022-12-05T14:33:43;99996.94;;;4.80;100.00
13869;BME280;7004;48.206;16.402;2022-12-05T14:36:24;100000.19;;;4.87;100.00
13869;BME280;7004;48.206;16.402;2022-12-05T14:38:55;100004.47;;;4.89;100.00
13869;BME280;7004;48.206;16.402;2022-12-05T14:41:27;99984.66;;;5.06;100.00
13869;BME280;7004;48.206;16.402;2022-12-05T14:43:56;99983.00;;;4.54;100.00
13869;BME280;7004;48.206;16.402;2022-12-05T14:46:27;99983.34;;;4.94;100.00
13869;BME280;7004;48.206;16.402;2022-12-05T14:48:55;99986.28;;;4.85;100.00
13869;BME280;7004;48.206;16.402;2022-12-05T14:54:11;100000.59;;;4.74;100.00
13869;BME280;7004;48.206;16.402;2022-12-05T14:56:59;100001.72;;;4.92;100.00
13869;BME280;7004;48.206;16.402;2022-12-05T15:02:41;100015.09;;;4.59;100.00
13869;BME280;7004;48.206;16.402;2022-12-05T15:05:26;99992.88;;;4.46;100.00
13869;BME280;7004;48.206;16.402;2022-12-05T15:07:56;99983.19;;;4.73;100.00
13869;BME280;7004;48.206;16.402;2022-12-05T15:10:28;99982.38;;;4.71;100.00
13869;BME280;7004;48.206;16.402;2022-12-05T15:13:04;99977.59;;;5.08;100.00
13869;BME280;7004;48.206;16.402;2022-12-05T15:26:30;100020.44;;;5.07;100.00
13869;BME280;7004;48.206;16.402;2022-12-05T15:35:02;100024.50;;;4.65;100.00
13869;BME280;7004;48.206;16.402;2022-12-05T15:37:38;100030.91;;;4.56;100.00
13869;BME280;7004;48.206;16.402;2022-12-05T15:40:15;100030.16;;;4.53;100.00
13869;BME280;7004;48.206;16.402;2022-12-05T15:42:49;100034.41;;;4.57;100.00
13869;BME280;7004;48.206;16.402;2022-12-05T15:45:25;100051.06;;;4.54;100.00
13869;BME280;7004;48.206;16.402;2022-12-05T15:50:48;100043.22;;;4.79;100.00
13869;BME280;7004;48.206;16.402;2022-12-05T15:53:46;100038.78;;;4.30;100.00
13869;BME280;7004;48.206;16.402;2022-12-05T15:56:23;100039.81;;;4.51;100.00
13869;BME280;7004;48.206;16.402;2022-12-05T15:58:56;100046.19;;;4.44;100.00
13869;BME280;7004;48.206;16.402;2022-12-05T16:01:27;100058.97;;;4.26;100.00
13869;BME280;7004;48.206;16.402;2022-12-05T16:04:02;100057.19;;;4.53;100.00
13869;BME280;7004;48.206;16.402;2022-12-05T16:06:40;100060.16;;;4.43;100.00
13869;BME280;7004;48.206;16.402;2022-12-05T16:09:14;100066.84;;;4.51;100.00